sensor_id;sensor_type;location;lat;lon;timestamp;P1;durP1;ratioP1;P2;durP2;ratioP2
82744;SDS011;72484;50.004;14.356;2023-11-19T00:03:35;10.60;;;6.60;;
82744;SDS011;72484;50.004;14.356;2023-11-19T00:07:32;11.70;;;6.90;;
82744;SDS011;72484;50.004;14.356;2023-11-19T00:11:29;11.80;;;6.70;;
82744;SDS011;72484;50.004;14.356;2023-11-19T00:15:26;11.60;;;6.40;;
82744;SDS011;72484;50.004;14.356;2023-11-19T00:19:24;12.30;;;7.10;;
82744;SDS011;72484;50.004;14.356;2023-11-19T00:23:21;12.60;;;7.80;;
82744;SDS011;72484;50.004;14.356;2023-11-19T00:27:19;11.50;;;7.30;;
82744;SDS011;72484;50.004;14.356;2023-11-19T00:31:16;12.70;;;7.20;;
82744;SDS011;72484;50.004;14.356;2023-11-19T00:35:13;12.60;;;7.80;;
82744;SDS011;72484;50.004;14.356;2023-11-19T00:39:09;12.70;;;7.30;;
82744;SDS011;72484;50.004;14.356;2023-11-19T00:43:09;13.00;;;8.40;;
82744;SDS011;72484;50.004;14.356;2023-11-19T00:47:05;14.50;;;8.50;;
82744;SDS011;72484;50.004;14.356;2023-11-19T00:51:03;13.90;;;8.80;;
82744;SDS011;72484;50.004;14.356;2023-11-19T00:55:01;13.60;;;8.30;;
82744;SDS011;72484;50.004;14.356;2023-11-19T00:58:58;14.40;;;8.50;;
82744;SDS011;72484;50.004;14.356;2023-11-19T01:03:13;14.20;;;8.70;;
82744;SDS011;72484;50.004;14.356;2023-11-19T01:06:32;13.30;;;8.70;;
82744;SDS011;72484;50.004;14.356;2023-11-19T01:10:29;13.60;;;8.70;;
82744;SDS011;72484;50.004;14.356;2023-11-19T01:14:26;13.50;;;8.30;;
82744;SDS011;72484;50.004;14.356;2023-11-19T01:18:24;13.60;;;8.80;;
82744;SDS011;72484;50.004;14.356;2023-11-19T01:22:21;12.00;;;7.80;;
82744;SDS011;72484;50.004;14.356;2023-11-19T01:26:18;13.00;;;7.80;;
82744;SDS011;72484;50.004;14.356;2023-11-19T01:30:15;12.90;;;8.10;;
82744;SDS011;72484;50.004;14.356;2023-11-19T01:34:13;13.30;;;8.20;;
82744;SDS011;72484;50.004;14.356;2023-11-19T01:38:10;12.80;;;7.90;;
82744;SDS011;72484;50.004;14.356;2023-11-19T01:42:14;12.80;;;7.90;;
82744;SDS011;72484;50.004;14.356;2023-11-19T01:45:44;13.40;;;8.40;;
82744;SDS011;72484;50.004;14.356;2023-11-19T01:50:00;13.80;;;8.60;;
82744;SDS011;72484;50.004;14.356;2023-11-19T01:53:19;13.60;;;8.70;;
82744;SDS011;72484;50.004;14.356;2023-11-19T01:57:17;13.90;;;9.10;;
82744;SDS011;72484;50.004;14.356;2023-11-19T02:01:15;13.80;;;8.90;;
82744;SDS011;72484;50.004;14.356;2023-11-19T02:05:12;12.40;;;7.90;;
82744;SDS011;72484;50.004;14.356;2023-11-19T02:09:10;12.80;;;8.00;;
82744;SDS011;72484;50.004;14.356;2023-11-19T02:13:07;13.10;;;7.30;;
82744;SDS011;72484;50.004;14.356;2023-11-19T02:17:04;12.50;;;7.40;;
82744;SDS011;72484;50.004;14.356;2023-11-19T02:21:02;12.60;;;7.80;;
82744;SDS011;72484;50.004;14.356;2023-11-19T02:25:00;13.90;;;8.70;;
82744;SDS011;72484;50.004;14.356;2023-11-19T02:29:06;13.00;;;8.10;;
82744;SDS011;72484;50.004;14.356;2023-11-19T02:33:03;12.80;;;8.10;;
82744;SDS011;72484;50.004;14.356;2023-11-19T02:37:00;12.70;;;8.10;;
82744;SDS011;72484;50.004;14.356;2023-11-19T02:40:57;12.50;;;7.10;;
82744;SDS011;72484;50.004;14.356;2023-11-19T02:44:56;11.50;;;7.30;;
82744;SDS011;72484;50.004;14.356;2023-11-19T02:48:53;11.40;;;6.90;;
82744;SDS011;72484;50.004;14.356;2023-11-19T02:52:51;12.30;;;7.40;;
82744;SDS011;72484;50.004;14.356;2023-11-19T02:56:50;11.10;;;7.10;;
82744;SDS011;72484;50.004;14.356;2023-11-19T03:00:53;11.40;;;7.50;;
82744;SDS011;72484;50.004;14.356;2023-11-19T03:05:05;11.30;;;7.30;;
82744;SDS011;72484;50.004;14.356;2023-11-19T03:09:04;11.60;;;7.20;;
82744;SDS011;72484;50.004;14.356;2023-11-19T03:13:04;11.00;;;7.00;;
82744;SDS011;72484;50.004;14.356;2023-11-19T03:17:06;12.60;;;7.40;;
82744;SDS011;72484;50.004;14.356;2023-11-19T03:21:04;11.20;;;7.00;;
82744;SDS011;72484;50.004;14.356;2023-11-19T03:25:03;11.00;;;7.10;;
82744;SDS011;72484;50.004;14.356;2023-11-19T03:29:02;10.10;;;6.70;;
82744;SDS011;72484;50.004;14.356;2023-11-19T03:32:59;9.80;;;6.00;;
82744;SDS011;72484;50.004;14.356;2023-11-19T03:36:56;10.40;;;6.10;;
82744;SDS011;72484;50.004;14.356;2023-11-19T03:40:53;10.60;;;6.30;;
82744;SDS011;72484;50.004;14.356;2023-11-19T03:44:50;9.80;;;6.10;;
82744;SDS011;72484;50.004;14.356;2023-11-19T03:48:49;9.90;;;6.00;;
82744;SDS011;72484;50.004;14.356;2023-11-19T03:52:46;10.00;;;5.90;;
82744;SDS011;72484;50.004;14.356;2023-11-19T03:56:43;10.10;;;6.10;;
82744;SDS011;72484;50.004;14.356;2023-11-19T04:00:40;9.90;;;5.90;;
82744;SDS011;72484;50.004;14.356;2023-11-19T04:04:37;10.10;;;6.40;;
82744;SDS011;72484;50.004;14.356;2023-11-19T04:08:34;10.30;;;6.30;;
82744;SDS011;72484;50.004;14.356;2023-11-19T04:12:31;10.00;;;6.10;;
82744;SDS011;72484;50.004;14.356;2023-11-19T04:16:30;10.30;;;5.90;;
82744;SDS011;72484;50.004;14.356;2023-11-19T04:21:09;10.20;;;6.80;;
82744;SDS011;72484;50.004;14.356;2023-11-19T04:25:07;9.70;;;6.00;;
82744;SDS011;72484;50.004;14.356;2023-11-19T04:29:15;9.70;;;5.90;;
82744;SDS011;72484;50.004;14.356;2023-11-19T04:33:12;10.40;;;6.20;;
82744;SDS011;72484;50.004;14.356;2023-11-19T04:37:09;10.00;;;5.90;;
82744;SDS011;72484;50.004;14.356;2023-11-19T04:41:27;9.80;;;6.00;;
82744;SDS011;72484;50.004;14.356;2023-11-19T04:45:04;9.70;;;6.20;;
82744;SDS011;72484;50.004;14.356;2023-11-19T04:49:07;10.10;;;5.80;;
82744;SDS011;72484;50.004;14.356;2023-11-19T04:53:05;12.00;;;6.80;;
82744;SDS011;72484;50.004;14.356;2023-11-19T04:57:02;10.30;;;6.00;;
82744;SDS011;72484;50.004;14.356;2023-11-19T05:00:59;10.20;;;5.70;;
82744;SDS011;72484;50.004;14.356;2023-11-19T05:05:00;9.40;;;5.60;;
82744;SDS011;72484;50.004;14.356;2023-11-19T05:08:59;8.90;;;5.10;;
82744;SDS011;72484;50.004;14.356;2023-11-19T05:12:59;8.20;;;4.90;;
82744;SDS011;72484;50.004;14.356;2023-11-19T05:16:56;8.20;;;4.80;;
82744;SDS011;72484;50.004;14.356;2023-11-19T05:20:53;8.70;;;4.80;;
82744;SDS011;72484;50.004;14.356;2023-11-19T05:25:00;8.50;;;4.60;;
82744;SDS011;72484;50.004;14.356;2023-11-19T05:28:27;8.50;;;4.40;;
82744;SDS011;72484;50.004;14.356;2023-11-19T05:32:25;8.20;;;4.70;;
82744;SDS011;72484;50.004;14.356;2023-11-19T05:36:22;7.70;;;4.30;;
82744;SDS011;72484;50.004;14.356;2023-11-19T05:40:19;8.80;;;4.80;;
82744;SDS011;72484;50.004;14.356;2023-11-19T05:44:16;8.00;;;4.50;;
82744;SDS011;72484;50.004;14.356;2023-11-19T05:48:14;8.50;;;4.50;;
82744;SDS011;72484;50.004;14.356;2023-11-19T05:52:11;8.30;;;4.70;;
82744;SDS011;72484;50.004;14.356;2023-11-19T05:56:09;8.50;;;4.60;;
82744;SDS011;72484;50.004;14.356;2023-11-19T06:00:07;7.40;;;4.10;;
82744;SDS011;72484;50.004;14.356;2023-11-19T06:04:07;8.80;;;4.60;;
82744;SDS011;72484;50.004;14.356;2023-11-19T06:08:04;7.50;;;3.80;;
82744;SDS011;72484;50.004;14.356;2023-11-19T06:12:01;7.80;;;3.80;;
82744;SDS011;72484;50.004;14.356;2023-11-19T06:16:01;8.30;;;4.20;;
82744;SDS011;72484;50.004;14.356;2023-11-19T06:19:58;7.90;;;4.20;;
82744;SDS011;72484;50.004;14.356;2023-11-19T06:23:55;9.00;;;4.50;;
82744;SDS011;72484;50.004;14.356;2023-11-19T06:27:52;8.00;;;4.00;;
82744;SDS011;72484;50.004;14.356;2023-11-19T06:32:12;7.10;;;3.80;;
82744;SDS011;72484;50.004;14.356;2023-11-19T06:36:08;8.00;;;3.60;;
82744;SDS011;72484;50.004;14.356;2023-11-19T06:40:06;7.60;;;4.40;;
82744;SDS011;72484;50.004;14.356;2023-11-19T06:44:04;8.60;;;4.50;;
82744;SDS011;72484;50.004;14.356;2023-11-19T06:48:02;9.50;;;5.70;;
82744;SDS011;72484;50.004;14.356;2023-11-19T06:51:59;11.40;;;7.60;;
82744;SDS011;72484;50.004;14.356;2023-11-19T06:55:56;10.10;;;6.80;;
82744;SDS011;72484;50.004;14.356;2023-11-19T06:59:54;8.70;;;5.00;;
82744;SDS011;72484;50.004;14.356;2023-11-19T07:04:13;7.70;;;4.10;;
82744;SDS011;72484;50.004;14.356;2023-11-19T07:07:49;9.40;;;5.30;;
82744;SDS011;72484;50.004;14.356;2023-11-19T07:11:47;9.60;;;5.30;;
82744;SDS011;72484;50.004;14.356;2023-11-19T07:15:46;9.40;;;5.60;;
82744;SDS011;72484;50.004;14.356;2023-11-19T07:19:44;8.90;;;5.30;;
82744;SDS011;72484;50.004;14.356;2023-11-19T07:23:42;8.80;;;5.50;;
82744;SDS011;72484;50.004;14.356;2023-11-19T07:27:40;8.70;;;5.10;;
82744;SDS011;72484;50.004;14.356;2023-11-19T07:31:38;8.20;;;4.40;;
82744;SDS011;72484;50.004;14.356;2023-11-19T07:35:56;8.40;;;4.30;;
82744;SDS011;72484;50.004;14.356;2023-11-19T07:39:13;8.50;;;4.70;;
82744;SDS011;72484;50.004;14.356;2023-11-19T07:43:13;8.20;;;4.50;;
82744;SDS011;72484;50.004;14.356;2023-11-19T07:47:10;8.10;;;4.30;;
82744;SDS011;72484;50.004;14.356;2023-11-19T07:51:12;7.70;;;4.20;;
82744;SDS011;72484;50.004;14.356;2023-11-19T07:55:32;7.90;;;4.30;;
82744;SDS011;72484;50.004;14.356;2023-11-19T07:58:48;7.50;;;4.10;;
82744;SDS011;72484;50.004;14.356;2023-11-19T08:02:46;8.00;;;4.30;;
82744;SDS011;72484;50.004;14.356;2023-11-19T08:06:44;7.60;;;4.10;;
82744;SDS011;72484;50.004;14.356;2023-11-19T08:10:41;8.10;;;4.60;;
82744;SDS011;72484;50.004;14.356;2023-11-19T08:14:38;7.90;;;4.20;;
82744;SDS011;72484;50.004;14.356;2023-11-19T08:18:36;9.20;;;4.80;;
82744;SDS011;72484;50.004;14.356;2023-11-19T08:22:36;8.00;;;4.60;;
82744;SDS011;72484;50.004;14.356;2023-11-19T08:26:34;10.00;;;6.00;;
82744;SDS011;72484;50.004;14.356;2023-11-19T08:30:55;8.50;;;4.80;;
82744;SDS011;72484;50.004;14.356;2023-11-19T08:35:13;8.80;;;4.70;;
82744;SDS011;72484;50.004;14.356;2023-11-19T08:38:51;8.60;;;4.90;;
82744;SDS011;72484;50.004;14.356;2023-11-19T08:42:08;8.40;;;4.80;;
82744;SDS011;72484;50.004;14.356;2023-11-19T08:46:10;8.90;;;4.60;;
82744;SDS011;72484;50.004;14.356;2023-11-19T08:50:12;9.50;;;4.60;;
82744;SDS011;72484;50.004;14.356;2023-11-19T08:54:11;7.80;;;3.90;;
82744;SDS011;72484;50.004;14.356;2023-11-19T08:58:09;7.20;;;3.80;;
82744;SDS011;72484;50.004;14.356;2023-11-19T09:02:06;7.40;;;4.00;;
82744;SDS011;72484;50.004;14.356;2023-11-19T09:06:04;7.70;;;3.90;;
82744;SDS011;72484;50.004;14.356;2023-11-19T09:10:03;8.10;;;3.40;;
82744;SDS011;72484;50.004;14.356;2023-11-19T09:14:11;7.60;;;3.70;;
82744;SDS011;72484;50.004;14.356;2023-11-19T09:18:08;8.10;;;4.20;;
82744;SDS011;72484;50.004;14.356;2023-11-19T09:22:05;9.40;;;4.00;;
82744;SDS011;72484;50.004;14.356;2023-11-19T09:26:04;8.10;;;3.80;;
82744;SDS011;72484;50.004;14.356;2023-11-19T09:30:04;9.20;;;5.50;;
82744;SDS011;72484;50.004;14.356;2023-11-19T09:34:03;8.70;;;4.50;;
82744;SDS011;72484;50.004;14.356;2023-11-19T09:38:00;10.10;;;4.70;;
82744;SDS011;72484;50.004;14.356;2023-11-19T09:41:59;8.30;;;4.60;;
82744;SDS011;72484;50.004;14.356;2023-11-19T09:45:58;8.50;;;4.80;;
82744;SDS011;72484;50.004;14.356;2023-11-19T09:50:04;10.40;;;6.50;;
82744;SDS011;72484;50.004;14.356;2023-11-19T09:54:03;11.40;;;6.70;;
82744;SDS011;72484;50.004;14.356;2023-11-19T09:58:00;8.00;;;4.30;;
82744;SDS011;72484;50.004;14.356;2023-11-19T10:12:25;7.00;;;2.20;;
82744;SDS011;72484;50.004;14.356;2023-11-19T10:15:35;7.50;;;2.60;;
82744;SDS011;72484;50.004;14.356;2023-11-19T10:18:59;7.50;;;2.60;;
82744;SDS011;72484;50.004;14.356;2023-11-19T10:22:57;6.00;;;1.90;;
82744;SDS011;72484;50.004;14.356;2023-11-19T10:26:54;5.90;;;2.00;;
82744;SDS011;72484;50.004;14.356;2023-11-19T10:30:57;5.60;;;2.00;;
82744;SDS011;72484;50.004;14.356;2023-11-19T10:35:03;4.90;;;1.30;;
82744;SDS011;72484;50.004;14.356;2023-11-19T10:39:05;4.70;;;1.10;;
82744;SDS011;72484;50.004;14.356;2023-11-19T10:43:03;5.00;;;1.30;;
82744;SDS011;72484;50.004;14.356;2023-11-19T10:47:01;5.00;;;0.80;;
82744;SDS011;72484;50.004;14.356;2023-11-19T10:51:06;4.10;;;0.80;;
82744;SDS011;72484;50.004;14.356;2023-11-19T10:55:05;3.70;;;0.60;;
82744;SDS011;72484;50.004;14.356;2023-11-19T10:59:08;3.90;;;0.80;;
82744;SDS011;72484;50.004;14.356;2023-11-19T11:03:08;3.90;;;0.80;;
82744;SDS011;72484;50.004;14.356;2023-11-19T11:07:11;4.10;;;0.70;;
82744;SDS011;72484;50.004;14.356;2023-11-19T11:11:10;3.70;;;0.60;;
82744;SDS011;72484;50.004;14.356;2023-11-19T11:15:11;4.30;;;0.80;;
82744;SDS011;72484;50.004;14.356;2023-11-19T11:19:09;4.90;;;1.30;;
82744;SDS011;72484;50.004;14.356;2023-11-19T11:28:00;5.30;;;1.50;;
82744;SDS011;72484;50.004;14.356;2023-11-19T11:32:13;5.50;;;1.30;;
82744;SDS011;72484;50.004;14.356;2023-11-19T11:36:20;6.10;;;2.10;;
82744;SDS011;72484;50.004;14.356;2023-11-19T11:40:19;7.30;;;2.20;;
82744;SDS011;72484;50.004;14.356;2023-11-19T11:44:17;6.20;;;2.30;;
82744;SDS011;72484;50.004;14.356;2023-11-19T11:48:34;6.00;;;1.80;;
82744;SDS011;72484;50.004;14.356;2023-11-19T11:52:49;5.50;;;1.10;;
82744;SDS011;72484;50.004;14.356;2023-11-19T11:57:18;4.90;;;1.10;;
82744;SDS011;72484;50.004;14.356;2023-11-19T12:12:20;7.20;;;2.30;;
82744;SDS011;72484;50.004;14.356;2023-11-19T12:15:17;5.60;;;1.30;;
82744;SDS011;72484;50.004;14.356;2023-11-19T12:19:19;5.30;;;1.20;;
82744;SDS011;72484;50.004;14.356;2023-11-19T12:23:17;5.40;;;1.60;;
82744;SDS011;72484;50.004;14.356;2023-11-19T12:27:14;4.90;;;1.10;;
82744;SDS011;72484;50.004;14.356;2023-11-19T12:31:12;5.20;;;1.00;;
82744;SDS011;72484;50.004;14.356;2023-11-19T12:35:09;5.60;;;1.00;;
82744;SDS011;72484;50.004;14.356;2023-11-19T12:39:08;5.30;;;0.90;;
82744;SDS011;72484;50.004;14.356;2023-11-19T12:43:06;4.50;;;0.90;;
82744;SDS011;72484;50.004;14.356;2023-11-19T12:47:07;4.80;;;0.90;;
82744;SDS011;72484;50.004;14.356;2023-11-19T12:51:24;4.00;;;0.80;;
82744;SDS011;72484;50.004;14.356;2023-11-19T12:55:28;5.50;;;0.80;;
82744;SDS011;72484;50.004;14.356;2023-11-19T12:59:29;5.40;;;1.10;;
82744;SDS011;72484;50.004;14.356;2023-11-19T13:03:32;5.40;;;0.90;;
82744;SDS011;72484;50.004;14.356;2023-11-19T13:07:32;4.80;;;1.00;;
82744;SDS011;72484;50.004;14.356;2023-11-19T13:11:33;5.20;;;1.00;;
82744;SDS011;72484;50.004;14.356;2023-11-19T13:15:31;5.50;;;1.00;;
82744;SDS011;72484;50.004;14.356;2023-11-19T13:19:28;5.60;;;1.00;;
82744;SDS011;72484;50.004;14.356;2023-11-19T13:23:25;5.80;;;0.90;;
82744;SDS011;72484;50.004;14.356;2023-11-19T13:27:24;5.00;;;1.00;;
82744;SDS011;72484;50.004;14.356;2023-11-19T13:31:40;6.50;;;1.20;;
82744;SDS011;72484;50.004;14.356;2023-11-19T13:35:01;5.90;;;1.40;;
82744;SDS011;72484;50.004;14.356;2023-11-19T13:38:59;5.90;;;1.20;;
82744;SDS011;72484;50.004;14.356;2023-11-19T13:42:56;9.00;;;2.60;;
82744;SDS011;72484;50.004;14.356;2023-11-19T13:46:53;6.70;;;1.90;;
82744;SDS011;72484;50.004;14.356;2023-11-19T13:50:50;6.70;;;1.70;;
82744;SDS011;72484;50.004;14.356;2023-11-19T13:54:49;8.00;;;3.00;;
82744;SDS011;72484;50.004;14.356;2023-11-19T13:58:45;6.30;;;1.50;;
82744;SDS011;72484;50.004;14.356;2023-11-19T14:02:43;5.20;;;1.10;;
82744;SDS011;72484;50.004;14.356;2023-11-19T14:06:41;4.90;;;1.10;;
82744;SDS011;72484;50.004;14.356;2023-11-19T14:10:39;6.00;;;1.30;;
82744;SDS011;72484;50.004;14.356;2023-11-19T14:14:39;5.10;;;1.10;;
82744;SDS011;72484;50.004;14.356;2023-11-19T14:18:38;5.70;;;1.20;;
82744;SDS011;72484;50.004;14.356;2023-11-19T14:22:34;5.60;;;1.10;;
82744;SDS011;72484;50.004;14.356;2023-11-19T14:26:33;4.90;;;1.00;;
82744;SDS011;72484;50.004;14.356;2023-11-19T14:30:30;5.90;;;1.80;;
82744;SDS011;72484;50.004;14.356;2023-11-19T14:34:47;5.70;;;1.50;;
82744;SDS011;72484;50.004;14.356;2023-11-19T14:38:06;6.10;;;1.60;;
82744;SDS011;72484;50.004;14.356;2023-11-19T14:42:04;6.10;;;1.40;;
82744;SDS011;72484;50.004;14.356;2023-11-19T14:46:03;6.10;;;2.30;;
82744;SDS011;72484;50.004;14.356;2023-11-19T14:50:00;6.10;;;1.60;;
82744;SDS011;72484;50.004;14.356;2023-11-19T14:53:57;5.70;;;1.30;;
82744;SDS011;72484;50.004;14.356;2023-11-19T14:57:54;8.10;;;2.40;;
82744;SDS011;72484;50.004;14.356;2023-11-19T15:01:51;7.00;;;2.70;;
82744;SDS011;72484;50.004;14.356;2023-11-19T15:05:47;6.10;;;2.00;;
82744;SDS011;72484;50.004;14.356;2023-11-19T15:09:44;5.60;;;1.50;;
82744;SDS011;72484;50.004;14.356;2023-11-19T15:13:43;5.50;;;1.20;;
82744;SDS011;72484;50.004;14.356;2023-11-19T15:17:41;7.20;;;1.60;;
82744;SDS011;72484;50.004;14.356;2023-11-19T15:21:38;5.80;;;1.40;;
82744;SDS011;72484;50.004;14.356;2023-11-19T15:25:36;6.10;;;1.20;;
82744;SDS011;72484;50.004;14.356;2023-11-19T15:29:33;6.40;;;1.30;;
82744;SDS011;72484;50.004;14.356;2023-11-19T15:33:33;5.80;;;1.10;;
82744;SDS011;72484;50.004;14.356;2023-11-19T15:37:31;5.70;;;1.30;;
82744;SDS011;72484;50.004;14.356;2023-11-19T15:41:29;7.30;;;1.50;;
82744;SDS011;72484;50.004;14.356;2023-11-19T15:45:26;7.30;;;1.60;;
82744;SDS011;72484;50.004;14.356;2023-11-19T15:49:35;7.70;;;2.20;;
82744;SDS011;72484;50.004;14.356;2023-11-19T15:53:01;7.20;;;2.60;;
82744;SDS011;72484;50.004;14.356;2023-11-19T15:57:03;10.10;;;3.60;;
82744;SDS011;72484;50.004;14.356;2023-11-19T16:00:37;7.70;;;1.90;;
82744;SDS011;72484;50.004;14.356;2023-11-19T16:04:40;8.90;;;2.40;;
82744;SDS011;72484;50.004;14.356;2023-11-19T16:08:41;12.00;;;4.70;;
82744;SDS011;72484;50.004;14.356;2023-11-19T16:12:38;16.70;;;7.70;;
82744;SDS011;72484;50.004;14.356;2023-11-19T16:16:40;13.10;;;6.00;;
82744;SDS011;72484;50.004;14.356;2023-11-19T16:21:00;10.90;;;4.70;;
82744;SDS011;72484;50.004;14.356;2023-11-19T16:24:15;11.50;;;5.10;;
82744;SDS011;72484;50.004;14.356;2023-11-19T16:28:12;13.30;;;4.80;;
82744;SDS011;72484;50.004;14.356;2023-11-19T16:32:12;16.60;;;9.40;;
82744;SDS011;72484;50.004;14.356;2023-11-19T16:36:30;14.80;;;7.40;;
82744;SDS011;72484;50.004;14.356;2023-11-19T16:39:47;33.10;;;21.20;;
82744;SDS011;72484;50.004;14.356;2023-11-19T16:43:45;14.60;;;8.10;;
82744;SDS011;72484;50.004;14.356;2023-11-19T16:47:43;11.40;;;4.60;;
82744;SDS011;72484;50.004;14.356;2023-11-19T16:51:45;11.90;;;5.20;;
82744;SDS011;72484;50.004;14.356;2023-11-19T16:56:04;9.70;;;4.00;;
82744;SDS011;72484;50.004;14.356;2023-11-19T16:59:20;10.30;;;5.00;;
82744;SDS011;72484;50.004;14.356;2023-11-19T17:03:17;10.70;;;4.80;;
82744;SDS011;72484;50.004;14.356;2023-11-19T17:07:14;21.60;;;6.80;;
82744;SDS011;72484;50.004;14.356;2023-11-19T17:11:14;16.50;;;5.40;;
82744;SDS011;72484;50.004;14.356;2023-11-19T17:15:11;12.30;;;4.90;;
82744;SDS011;72484;50.004;14.356;2023-11-19T17:19:08;12.70;;;5.90;;
82744;SDS011;72484;50.004;14.356;2023-11-19T17:23:05;11.90;;;6.20;;
82744;SDS011;72484;50.004;14.356;2023-11-19T17:27:02;17.60;;;7.70;;
82744;SDS011;72484;50.004;14.356;2023-11-19T17:31:02;20.80;;;9.70;;
82744;SDS011;72484;50.004;14.356;2023-11-19T17:35:03;23.00;;;9.00;;
82744;SDS011;72484;50.004;14.356;2023-11-19T17:39:03;13.80;;;6.90;;
82744;SDS011;72484;50.004;14.356;2023-11-19T17:43:22;9.00;;;3.30;;
82744;SDS011;72484;50.004;14.356;2023-11-19T17:46:39;10.90;;;3.40;;
82744;SDS011;72484;50.004;14.356;2023-11-19T17:50:38;8.00;;;3.20;;
82744;SDS011;72484;50.004;14.356;2023-11-19T17:54:35;8.90;;;3.10;;
82744;SDS011;72484;50.004;14.356;2023-11-19T17:58:33;8.00;;;3.10;;
82744;SDS011;72484;50.004;14.356;2023-11-19T18:02:31;9.10;;;2.80;;
82744;SDS011;72484;50.004;14.356;2023-11-19T18:06:27;8.00;;;2.90;;
82744;SDS011;72484;50.004;14.356;2023-11-19T18:10:24;9.40;;;3.50;;
82744;SDS011;72484;50.004;14.356;2023-11-19T18:14:22;11.90;;;4.90;;
82744;SDS011;72484;50.004;14.356;2023-11-19T18:18:21;8.70;;;3.60;;
82744;SDS011;72484;50.004;14.356;2023-11-19T18:22:18;8.70;;;3.40;;
82744;SDS011;72484;50.004;14.356;2023-11-19T18:26:15;12.00;;;5.50;;
82744;SDS011;72484;50.004;14.356;2023-11-19T18:30:13;12.60;;;6.60;;
82744;SDS011;72484;50.004;14.356;2023-11-19T18:34:12;22.30;;;13.50;;
82744;SDS011;72484;50.004;14.356;2023-11-19T18:38:09;16.60;;;9.50;;
82744;SDS011;72484;50.004;14.356;2023-11-19T18:42:08;13.10;;;6.90;;
82744;SDS011;72484;50.004;14.356;2023-11-19T18:46:05;10.80;;;3.80;;
82744;SDS011;72484;50.004;14.356;2023-11-19T18:50:24;9.70;;;3.00;;
82744;SDS011;72484;50.004;14.356;2023-11-19T18:53:43;10.70;;;3.40;;
82744;SDS011;72484;50.004;14.356;2023-11-19T18:57:42;9.30;;;3.10;;
82744;SDS011;72484;50.004;14.356;2023-11-19T19:01:39;13.00;;;3.30;;
82744;SDS011;72484;50.004;14.356;2023-11-19T19:05:38;9.70;;;3.40;;
82744;SDS011;72484;50.004;14.356;2023-11-19T19:09:36;15.40;;;4.80;;
82744;SDS011;72484;50.004;14.356;2023-11-19T19:13:35;12.30;;;3.30;;
82744;SDS011;72484;50.004;14.356;2023-11-19T19:17:32;10.60;;;2.80;;
82744;SDS011;72484;50.004;14.356;2023-11-19T19:21:34;10.60;;;3.10;;
82744;SDS011;72484;50.004;14.356;2023-11-19T19:25:45;11.10;;;3.50;;
82744;SDS011;72484;50.004;14.356;2023-11-19T19:29:11;13.60;;;4.40;;
82744;SDS011;72484;50.004;14.356;2023-11-19T19:33:09;15.40;;;5.40;;
82744;SDS011;72484;50.004;14.356;2023-11-19T19:37:08;10.90;;;3.60;;
82744;SDS011;72484;50.004;14.356;2023-11-19T19:41:07;13.80;;;3.10;;
82744;SDS011;72484;50.004;14.356;2023-11-19T19:45:05;9.80;;;2.60;;
82744;SDS011;72484;50.004;14.356;2023-11-19T19:49:06;9.40;;;2.50;;
82744;SDS011;72484;50.004;14.356;2023-11-19T19:53:03;9.90;;;2.90;;
82744;SDS011;72484;50.004;14.356;2023-11-19T19:56:59;11.70;;;4.90;;
82744;SDS011;72484;50.004;14.356;2023-11-19T20:00:56;11.10;;;2.80;;
82744;SDS011;72484;50.004;14.356;2023-11-19T20:04:56;9.30;;;2.30;;
82744;SDS011;72484;50.004;14.356;2023-11-19T20:08:53;11.10;;;2.80;;
82744;SDS011;72484;50.004;14.356;2023-11-19T20:12:50;8.20;;;2.20;;
82744;SDS011;72484;50.004;14.356;2023-11-19T20:16:47;9.30;;;2.30;;
82744;SDS011;72484;50.004;14.356;2023-11-19T20:20:44;11.60;;;3.80;;
82744;SDS011;72484;50.004;14.356;2023-11-19T20:25:04;10.90;;;3.30;;
82744;SDS011;72484;50.004;14.356;2023-11-19T20:28:19;11.30;;;2.90;;
82744;SDS011;72484;50.004;14.356;2023-11-19T20:32:18;9.30;;;2.80;;
82744;SDS011;72484;50.004;14.356;2023-11-19T20:36:16;8.70;;;2.40;;
82744;SDS011;72484;50.004;14.356;2023-11-19T20:40:15;7.80;;;2.30;;
82744;SDS011;72484;50.004;14.356;2023-11-19T20:44:17;8.60;;;2.20;;
82744;SDS011;72484;50.004;14.356;2023-11-19T20:48:14;9.90;;;2.10;;
82744;SDS011;72484;50.004;14.356;2023-11-19T20:52:13;7.90;;;2.00;;
82744;SDS011;72484;50.004;14.356;2023-11-19T20:56:12;8.70;;;2.00;;
82744;SDS011;72484;50.004;14.356;2023-11-19T21:00:10;8.80;;;2.20;;
82744;SDS011;72484;50.004;14.356;2023-11-19T21:04:08;7.80;;;2.20;;
82744;SDS011;72484;50.004;14.356;2023-11-19T21:08:05;8.70;;;2.30;;
82744;SDS011;72484;50.004;14.356;2023-11-19T21:12:05;10.00;;;2.40;;
82744;SDS011;72484;50.004;14.356;2023-11-19T21:16:04;9.80;;;2.30;;
82744;SDS011;72484;50.004;14.356;2023-11-19T21:20:05;9.60;;;2.00;;
82744;SDS011;72484;50.004;14.356;2023-11-19T21:24:04;9.60;;;2.40;;
82744;SDS011;72484;50.004;14.356;2023-11-19T21:28:01;10.70;;;2.50;;
82744;SDS011;72484;50.004;14.356;2023-11-19T21:31:59;8.70;;;2.10;;
82744;SDS011;72484;50.004;14.356;2023-11-19T21:35:56;9.70;;;2.30;;
82744;SDS011;72484;50.004;14.356;2023-11-19T21:39:54;8.70;;;1.80;;
82744;SDS011;72484;50.004;14.356;2023-11-19T21:43:52;9.60;;;2.30;;
82744;SDS011;72484;50.004;14.356;2023-11-19T21:47:50;9.50;;;2.70;;
82744;SDS011;72484;50.004;14.356;2023-11-19T21:51:47;9.70;;;2.40;;
82744;SDS011;72484;50.004;14.356;2023-11-19T21:55:47;12.50;;;2.10;;
82744;SDS011;72484;50.004;14.356;2023-11-19T22:00:04;11.30;;;3.10;;
82744;SDS011;72484;50.004;14.356;2023-11-19T22:03:24;9.50;;;2.40;;
82744;SDS011;72484;50.004;14.356;2023-11-19T22:07:22;8.60;;;2.10;;
82744;SDS011;72484;50.004;14.356;2023-11-19T22:11:20;8.70;;;1.80;;
82744;SDS011;72484;50.004;14.356;2023-11-19T22:15:40;10.20;;;1.80;;
82744;SDS011;72484;50.004;14.356;2023-11-19T22:18:58;8.30;;;1.80;;
82744;SDS011;72484;50.004;14.356;2023-11-19T22:22:56;9.10;;;2.00;;
82744;SDS011;72484;50.004;14.356;2023-11-19T22:26:53;7.90;;;1.50;;
82744;SDS011;72484;50.004;14.356;2023-11-19T22:30:52;9.80;;;1.80;;
82744;SDS011;72484;50.004;14.356;2023-11-19T22:34:50;9.30;;;2.10;;
82744;SDS011;72484;50.004;14.356;2023-11-19T22:38:49;9.60;;;2.10;;
82744;SDS011;72484;50.004;14.356;2023-11-19T22:42:47;9.60;;;2.00;;
82744;SDS011;72484;50.004;14.356;2023-11-19T22:46:46;11.20;;;2.70;;
82744;SDS011;72484;50.004;14.356;2023-11-19T22:51:05;8.50;;;2.10;;
82744;SDS011;72484;50.004;14.356;2023-11-19T22:54:23;8.80;;;1.90;;
82744;SDS011;72484;50.004;14.356;2023-11-19T22:58:21;8.80;;;2.00;;
82744;SDS011;72484;50.004;14.356;2023-11-19T23:02:20;8.90;;;2.20;;
82744;SDS011;72484;50.004;14.356;2023-11-19T23:06:22;8.80;;;2.00;;
82744;SDS011;72484;50.004;14.356;2023-11-19T23:10:20;9.30;;;2.50;;
82744;SDS011;72484;50.004;14.356;2023-11-19T23:14:17;12.00;;;3.40;;
82744;SDS011;72484;50.004;14.356;2023-11-19T23:18:14;11.60;;;2.60;;
82744;SDS011;72484;50.004;14.356;2023-11-19T23:22:12;10.00;;;3.30;;
82744;SDS011;72484;50.004;14.356;2023-11-19T23:26:09;7.70;;;2.00;;
82744;SDS011;72484;50.004;14.356;2023-11-19T23:30:28;7.50;;;1.90;;
82744;SDS011;72484;50.004;14.356;2023-11-19T23:33:47;9.80;;;2.00;;
82744;SDS011;72484;50.004;14.356;2023-11-19T23:37:44;9.80;;;2.00;;
82744;SDS011;72484;50.004;14.356;2023-11-19T23:41:43;8.10;;;2.00;;
82744;SDS011;72484;50.004;14.356;2023-11-19T23:45:59;8.20;;;1.80;;